Landers, California
Current Conditions -  °F | °C
As of 3:56 PM on Wednesday 28 Jan 2015 (Local Time) from KNXP Reporting Station
Overcast Overcast  
Wind Chill: 17°   Ceiling: 20000
Heat Index: 17°   Visibility: 10mi
Dew Point:   Wind: 5mph
Humidity: 56%   Direction: 330°NNW
Pressure: 30.23"   Gusts: NA
Location:  34.27°N, 116.39°W
Report Text: KNXP 282356Z 33004KT 10SM OVC200 17/08 A3023 RMK AO2 SLP218 T01670078 10172 20111 55004 $
Loading
Personal Weather Stations






























Interactive Weather Map New forecast layout! Learn more

10-Day Weather Forecast

Advertisements
Track Severe Weather on mobile